sensor_id;sensor_type;location;lat;lon;timestamp;P1;durP1;ratioP1;P2;durP2;ratioP2
30533;SDS011;17318;52.390;9.754;2023-02-10T00:01:18;53.83;;;21.45;;
30533;SDS011;17318;52.390;9.754;2023-02-10T00:03:45;55.28;;;22.15;;
30533;SDS011;17318;52.390;9.754;2023-02-10T00:06:12;60.03;;;23.55;;
30533;SDS011;17318;52.390;9.754;2023-02-10T00:08:39;59.65;;;22.85;;
30533;SDS011;17318;52.390;9.754;2023-02-10T00:11:06;53.83;;;23.58;;
30533;SDS011;17318;52.390;9.754;2023-02-10T00:13:35;61.13;;;23.38;;
30533;SDS011;17318;52.390;9.754;2023-02-10T00:16:02;58.10;;;23.20;;
30533;SDS011;17318;52.390;9.754;2023-02-10T00:18:30;56.20;;;23.55;;
30533;SDS011;17318;52.390;9.754;2023-02-10T00:20:56;55.85;;;21.48;;
30533;SDS011;17318;52.390;9.754;2023-02-10T00:23:21;54.92;;;22.80;;
30533;SDS011;17318;52.390;9.754;2023-02-10T00:25:47;54.63;;;23.00;;
30533;SDS011;17318;52.390;9.754;2023-02-10T00:28:13;57.13;;;24.40;;
30533;SDS011;17318;52.390;9.754;2023-02-10T00:30:38;55.00;;;23.38;;
30533;SDS011;17318;52.390;9.754;2023-02-10T00:33:04;56.38;;;23.77;;
30533;SDS011;17318;52.390;9.754;2023-02-10T00:35:30;59.72;;;23.15;;
30533;SDS011;17318;52.390;9.754;2023-02-10T00:37:56;59.17;;;23.08;;
30533;SDS011;17318;52.390;9.754;2023-02-10T00:40:22;56.08;;;23.38;;
30533;SDS011;17318;52.390;9.754;2023-02-10T00:42:48;58.22;;;24.40;;
30533;SDS011;17318;52.390;9.754;2023-02-10T00:45:13;65.55;;;24.33;;
30533;SDS011;17318;52.390;9.754;2023-02-10T00:47:39;58.25;;;23.80;;
30533;SDS011;17318;52.390;9.754;2023-02-10T00:50:05;59.88;;;23.95;;
30533;SDS011;17318;52.390;9.754;2023-02-10T00:52:31;60.85;;;24.02;;
30533;SDS011;17318;52.390;9.754;2023-02-10T00:54:57;52.35;;;22.98;;
30533;SDS011;17318;52.390;9.754;2023-02-10T00:57:23;52.42;;;23.27;;
30533;SDS011;17318;52.390;9.754;2023-02-10T00:59:48;56.95;;;25.67;;
30533;SDS011;17318;52.390;9.754;2023-02-10T01:02:14;62.70;;;24.77;;
30533;SDS011;17318;52.390;9.754;2023-02-10T01:04:40;57.63;;;22.80;;
30533;SDS011;17318;52.390;9.754;2023-02-10T01:07:05;61.03;;;23.15;;
30533;SDS011;17318;52.390;9.754;2023-02-10T01:09:31;53.92;;;22.35;;
30533;SDS011;17318;52.390;9.754;2023-02-10T01:11:57;60.97;;;23.48;;
30533;SDS011;17318;52.390;9.754;2023-02-10T01:14:23;53.83;;;23.42;;
30533;SDS011;17318;52.390;9.754;2023-02-10T01:16:49;50.65;;;21.80;;
30533;SDS011;17318;52.390;9.754;2023-02-10T01:19:15;54.47;;;23.48;;
30533;SDS011;17318;52.390;9.754;2023-02-10T01:21:41;52.20;;;23.17;;
30533;SDS011;17318;52.390;9.754;2023-02-10T01:24:07;51.65;;;22.73;;
30533;SDS011;17318;52.390;9.754;2023-02-10T01:26:33;52.08;;;23.45;;
30533;SDS011;17318;52.390;9.754;2023-02-10T01:28:59;50.90;;;22.38;;
30533;SDS011;17318;52.390;9.754;2023-02-10T01:31:25;54.72;;;23.30;;
30533;SDS011;17318;52.390;9.754;2023-02-10T01:33:51;60.45;;;23.90;;
30533;SDS011;17318;52.390;9.754;2023-02-10T01:36:21;56.13;;;23.23;;
30533;SDS011;17318;52.390;9.754;2023-02-10T01:38:48;52.78;;;23.25;;
30533;SDS011;17318;52.390;9.754;2023-02-10T01:41:15;51.03;;;22.05;;
30533;SDS011;17318;52.390;9.754;2023-02-10T01:43:53;52.10;;;22.27;;
30533;SDS011;17318;52.390;9.754;2023-02-10T01:46:21;53.97;;;21.13;;
30533;SDS011;17318;52.390;9.754;2023-02-10T01:48:47;52.00;;;22.83;;
30533;SDS011;17318;52.390;9.754;2023-02-10T01:51:12;52.75;;;23.63;;
30533;SDS011;17318;52.390;9.754;2023-02-10T01:56:07;57.13;;;22.35;;
30533;SDS011;17318;52.390;9.754;2023-02-10T01:58:33;47.65;;;21.45;;
30533;SDS011;17318;52.390;9.754;2023-02-10T02:00:59;53.80;;;22.33;;
30533;SDS011;17318;52.390;9.754;2023-02-10T02:03:25;50.63;;;22.70;;
30533;SDS011;17318;52.390;9.754;2023-02-10T02:05:51;56.95;;;23.63;;
30533;SDS011;17318;52.390;9.754;2023-02-10T02:08:21;52.10;;;23.50;;
30533;SDS011;17318;52.390;9.754;2023-02-10T02:16:58;51.35;;;22.02;;
30533;SDS011;17318;52.390;9.754;2023-02-10T02:19:16;57.42;;;22.70;;
30533;SDS011;17318;52.390;9.754;2023-02-10T02:24:58;57.75;;;22.52;;
30533;SDS011;17318;52.390;9.754;2023-02-10T02:36:00;56.55;;;22.27;;
30533;SDS011;17318;52.390;9.754;2023-02-10T02:38:41;52.40;;;21.98;;
30533;SDS011;17318;52.390;9.754;2023-02-10T02:41:08;49.67;;;21.67;;
30533;SDS011;17318;52.390;9.754;2023-02-10T02:43:34;53.78;;;21.52;;
30533;SDS011;17318;52.390;9.754;2023-02-10T02:46:12;47.50;;;21.58;;
30533;SDS011;17318;52.390;9.754;2023-02-10T02:48:57;54.90;;;22.65;;
30533;SDS011;17318;52.390;9.754;2023-02-10T02:56:56;49.50;;;20.48;;
30533;SDS011;17318;52.390;9.754;2023-02-10T02:59:49;52.33;;;22.80;;
30533;SDS011;17318;52.390;9.754;2023-02-10T03:02:21;56.00;;;20.67;;
30533;SDS011;17318;52.390;9.754;2023-02-10T03:04:47;49.38;;;21.35;;
30533;SDS011;17318;52.390;9.754;2023-02-10T03:07:13;44.95;;;19.25;;
30533;SDS011;17318;52.390;9.754;2023-02-10T03:09:39;51.47;;;21.58;;
30533;SDS011;17318;52.390;9.754;2023-02-10T03:12:06;45.50;;;19.42;;
30533;SDS011;17318;52.390;9.754;2023-02-10T03:14:32;47.20;;;19.63;;
30533;SDS011;17318;52.390;9.754;2023-02-10T03:16:57;45.85;;;19.92;;
30533;SDS011;17318;52.390;9.754;2023-02-10T03:19:23;47.33;;;19.27;;
30533;SDS011;17318;52.390;9.754;2023-02-10T03:21:49;47.75;;;19.20;;
30533;SDS011;17318;52.390;9.754;2023-02-10T03:24:15;42.03;;;18.63;;
30533;SDS011;17318;52.390;9.754;2023-02-10T03:26:41;42.88;;;16.73;;
30533;SDS011;17318;52.390;9.754;2023-02-10T03:29:07;47.85;;;18.88;;
30533;SDS011;17318;52.390;9.754;2023-02-10T03:31:34;39.70;;;17.75;;
30533;SDS011;17318;52.390;9.754;2023-02-10T03:34:00;39.55;;;17.00;;
30533;SDS011;17318;52.390;9.754;2023-02-10T03:36:26;46.17;;;17.73;;
30533;SDS011;17318;52.390;9.754;2023-02-10T03:38:51;40.10;;;17.48;;
30533;SDS011;17318;52.390;9.754;2023-02-10T03:41:17;38.13;;;16.73;;
30533;SDS011;17318;52.390;9.754;2023-02-10T03:43:42;42.10;;;16.38;;
30533;SDS011;17318;52.390;9.754;2023-02-10T03:46:09;39.47;;;17.15;;
30533;SDS011;17318;52.390;9.754;2023-02-10T03:48:35;35.22;;;16.67;;
30533;SDS011;17318;52.390;9.754;2023-02-10T03:51:02;40.15;;;17.20;;
30533;SDS011;17318;52.390;9.754;2023-02-10T03:55:55;43.05;;;16.13;;
30533;SDS011;17318;52.390;9.754;2023-02-10T03:58:21;40.20;;;17.38;;
30533;SDS011;17318;52.390;9.754;2023-02-10T04:00:47;37.65;;;16.00;;
30533;SDS011;17318;52.390;9.754;2023-02-10T04:03:13;41.03;;;17.05;;
30533;SDS011;17318;52.390;9.754;2023-02-10T04:05:39;35.72;;;14.93;;
30533;SDS011;17318;52.390;9.754;2023-02-10T04:08:04;41.92;;;16.55;;
30533;SDS011;17318;52.390;9.754;2023-02-10T04:10:30;39.30;;;15.98;;
30533;SDS011;17318;52.390;9.754;2023-02-10T04:12:56;33.85;;;15.23;;
30533;SDS011;17318;52.390;9.754;2023-02-10T04:15:22;37.28;;;16.52;;
30533;SDS011;17318;52.390;9.754;2023-02-10T04:17:47;36.83;;;15.70;;
30533;SDS011;17318;52.390;9.754;2023-02-10T04:20:13;33.97;;;15.30;;
30533;SDS011;17318;52.390;9.754;2023-02-10T04:22:39;36.75;;;16.60;;
30533;SDS011;17318;52.390;9.754;2023-02-10T04:25:05;37.53;;;15.52;;
30533;SDS011;17318;52.390;9.754;2023-02-10T04:27:31;38.85;;;16.25;;
30533;SDS011;17318;52.390;9.754;2023-02-10T04:29:57;34.25;;;15.48;;
30533;SDS011;17318;52.390;9.754;2023-02-10T04:32:22;33.45;;;15.95;;
30533;SDS011;17318;52.390;9.754;2023-02-10T04:34:48;35.65;;;15.30;;
30533;SDS011;17318;52.390;9.754;2023-02-10T04:37:13;34.75;;;15.05;;
30533;SDS011;17318;52.390;9.754;2023-02-10T04:39:39;33.15;;;14.50;;
30533;SDS011;17318;52.390;9.754;2023-02-10T04:42:05;36.25;;;15.00;;
30533;SDS011;17318;52.390;9.754;2023-02-10T04:44:31;38.10;;;15.55;;
30533;SDS011;17318;52.390;9.754;2023-02-10T04:46:57;40.80;;;15.98;;
30533;SDS011;17318;52.390;9.754;2023-02-10T04:49:23;38.50;;;14.70;;
30533;SDS011;17318;52.390;9.754;2023-02-10T04:51:49;47.20;;;16.90;;
30533;SDS011;17318;52.390;9.754;2023-02-10T04:54:15;39.38;;;15.73;;
30533;SDS011;17318;52.390;9.754;2023-02-10T04:56:40;37.58;;;15.38;;
30533;SDS011;17318;52.390;9.754;2023-02-10T04:59:06;39.30;;;15.68;;
30533;SDS011;17318;52.390;9.754;2023-02-10T05:01:32;40.50;;;16.88;;
30533;SDS011;17318;52.390;9.754;2023-02-10T05:03:58;38.45;;;16.65;;
30533;SDS011;17318;52.390;9.754;2023-02-10T05:06:24;41.78;;;16.40;;
30533;SDS011;17318;52.390;9.754;2023-02-10T05:08:49;43.88;;;17.90;;
30533;SDS011;17318;52.390;9.754;2023-02-10T05:11:16;45.00;;;17.73;;
30533;SDS011;17318;52.390;9.754;2023-02-10T05:13:42;46.75;;;17.83;;
30533;SDS011;17318;52.390;9.754;2023-02-10T05:16:09;40.22;;;17.55;;
30533;SDS011;17318;52.390;9.754;2023-02-10T05:18:36;37.47;;;18.02;;
30533;SDS011;17318;52.390;9.754;2023-02-10T05:21:04;45.85;;;17.80;;
30533;SDS011;17318;52.390;9.754;2023-02-10T05:23:32;43.95;;;17.05;;
30533;SDS011;17318;52.390;9.754;2023-02-10T05:25:58;42.90;;;18.33;;
30533;SDS011;17318;52.390;9.754;2023-02-10T05:28:24;39.58;;;16.58;;
30533;SDS011;17318;52.390;9.754;2023-02-10T05:30:50;46.10;;;17.50;;
30533;SDS011;17318;52.390;9.754;2023-02-10T05:33:15;41.08;;;17.10;;
30533;SDS011;17318;52.390;9.754;2023-02-10T05:35:41;44.38;;;17.95;;
30533;SDS011;17318;52.390;9.754;2023-02-10T05:38:07;41.20;;;18.23;;
30533;SDS011;17318;52.390;9.754;2023-02-10T05:40:32;43.63;;;17.13;;
30533;SDS011;17318;52.390;9.754;2023-02-10T05:42:58;45.03;;;18.30;;
30533;SDS011;17318;52.390;9.754;2023-02-10T05:45:24;34.50;;;16.27;;
30533;SDS011;17318;52.390;9.754;2023-02-10T05:47:50;41.65;;;19.38;;
30533;SDS011;17318;52.390;9.754;2023-02-10T05:50:16;41.42;;;16.65;;
30533;SDS011;17318;52.390;9.754;2023-02-10T05:52:42;35.90;;;17.00;;
30533;SDS011;17318;52.390;9.754;2023-02-10T05:55:08;42.42;;;17.75;;
30533;SDS011;17318;52.390;9.754;2023-02-10T05:57:35;43.50;;;17.67;;
30533;SDS011;17318;52.390;9.754;2023-02-10T06:00:01;44.15;;;17.52;;
30533;SDS011;17318;52.390;9.754;2023-02-10T06:02:27;44.47;;;17.67;;
30533;SDS011;17318;52.390;9.754;2023-02-10T06:04:53;47.30;;;17.65;;
30533;SDS011;17318;52.390;9.754;2023-02-10T06:07:19;41.40;;;18.13;;
30533;SDS011;17318;52.390;9.754;2023-02-10T06:09:44;39.72;;;16.80;;
30533;SDS011;17318;52.390;9.754;2023-02-10T06:12:10;46.20;;;18.30;;
30533;SDS011;17318;52.390;9.754;2023-02-10T06:14:36;49.08;;;18.55;;
30533;SDS011;17318;52.390;9.754;2023-02-10T06:17:03;44.58;;;18.73;;
30533;SDS011;17318;52.390;9.754;2023-02-10T06:19:33;36.08;;;16.83;;
30533;SDS011;17318;52.390;9.754;2023-02-10T06:22:03;47.97;;;17.55;;
30533;SDS011;17318;52.390;9.754;2023-02-10T06:24:30;48.67;;;18.50;;
30533;SDS011;17318;52.390;9.754;2023-02-10T06:26:56;36.60;;;17.02;;
30533;SDS011;17318;52.390;9.754;2023-02-10T06:29:22;51.90;;;18.27;;
30533;SDS011;17318;52.390;9.754;2023-02-10T06:31:48;42.13;;;17.85;;
30533;SDS011;17318;52.390;9.754;2023-02-10T06:34:13;42.15;;;18.90;;
30533;SDS011;17318;52.390;9.754;2023-02-10T06:36:39;51.97;;;19.23;;
30533;SDS011;17318;52.390;9.754;2023-02-10T06:39:05;44.10;;;18.80;;
30533;SDS011;17318;52.390;9.754;2023-02-10T06:41:31;45.38;;;19.10;;
30533;SDS011;17318;52.390;9.754;2023-02-10T06:43:57;45.85;;;18.10;;
30533;SDS011;17318;52.390;9.754;2023-02-10T06:46:23;47.13;;;18.48;;
30533;SDS011;17318;52.390;9.754;2023-02-10T06:48:49;47.40;;;18.33;;
30533;SDS011;17318;52.390;9.754;2023-02-10T06:51:15;46.90;;;19.70;;
30533;SDS011;17318;52.390;9.754;2023-02-10T06:53:41;45.28;;;17.85;;
30533;SDS011;17318;52.390;9.754;2023-02-10T06:56:07;52.38;;;19.60;;
30533;SDS011;17318;52.390;9.754;2023-02-10T06:58:33;58.42;;;21.35;;
30533;SDS011;17318;52.390;9.754;2023-02-10T07:00:59;48.25;;;19.40;;
30533;SDS011;17318;52.390;9.754;2023-02-10T07:03:27;49.50;;;19.98;;
30533;SDS011;17318;52.390;9.754;2023-02-10T07:05:53;49.80;;;19.80;;
30533;SDS011;17318;52.390;9.754;2023-02-10T07:08:18;50.05;;;19.73;;
30533;SDS011;17318;52.390;9.754;2023-02-10T07:10:44;53.70;;;19.52;;
30533;SDS011;17318;52.390;9.754;2023-02-10T07:13:10;54.08;;;21.02;;
30533;SDS011;17318;52.390;9.754;2023-02-10T07:15:35;48.78;;;20.65;;
30533;SDS011;17318;52.390;9.754;2023-02-10T07:18:01;51.72;;;20.35;;
30533;SDS011;17318;52.390;9.754;2023-02-10T07:20:27;59.05;;;19.98;;
30533;SDS011;17318;52.390;9.754;2023-02-10T07:22:52;47.53;;;19.63;;
30533;SDS011;17318;52.390;9.754;2023-02-10T07:25:18;56.47;;;19.80;;
30533;SDS011;17318;52.390;9.754;2023-02-10T07:27:44;52.70;;;21.17;;
30533;SDS011;17318;52.390;9.754;2023-02-10T07:30:10;57.30;;;20.15;;
30533;SDS011;17318;52.390;9.754;2023-02-10T07:32:37;47.83;;;20.17;;
30533;SDS011;17318;52.390;9.754;2023-02-10T07:35:03;52.97;;;20.75;;
30533;SDS011;17318;52.390;9.754;2023-02-10T07:37:29;50.22;;;20.60;;
30533;SDS011;17318;52.390;9.754;2023-02-10T07:39:54;55.55;;;21.38;;
30533;SDS011;17318;52.390;9.754;2023-02-10T07:42:20;46.22;;;20.80;;
30533;SDS011;17318;52.390;9.754;2023-02-10T07:44:46;49.47;;;20.33;;
30533;SDS011;17318;52.390;9.754;2023-02-10T07:47:12;61.60;;;23.10;;
30533;SDS011;17318;52.390;9.754;2023-02-10T07:49:37;49.28;;;20.50;;
30533;SDS011;17318;52.390;9.754;2023-02-10T07:52:03;53.33;;;21.08;;
30533;SDS011;17318;52.390;9.754;2023-02-10T07:54:29;46.80;;;21.23;;
30533;SDS011;17318;52.390;9.754;2023-02-10T07:56:58;50.38;;;21.58;;
30533;SDS011;17318;52.390;9.754;2023-02-10T07:59:24;52.88;;;21.83;;
30533;SDS011;17318;52.390;9.754;2023-02-10T08:01:49;49.30;;;21.15;;
30533;SDS011;17318;52.390;9.754;2023-02-10T08:04:15;57.72;;;23.25;;
30533;SDS011;17318;52.390;9.754;2023-02-10T08:06:41;51.38;;;24.08;;
30533;SDS011;17318;52.390;9.754;2023-02-10T08:09:07;53.15;;;21.00;;
30533;SDS011;17318;52.390;9.754;2023-02-10T08:11:33;59.20;;;22.15;;
30533;SDS011;17318;52.390;9.754;2023-02-10T08:14:00;58.22;;;22.70;;
30533;SDS011;17318;52.390;9.754;2023-02-10T08:16:26;53.90;;;20.80;;
30533;SDS011;17318;52.390;9.754;2023-02-10T08:18:52;57.17;;;23.45;;
30533;SDS011;17318;52.390;9.754;2023-02-10T08:21:17;52.85;;;22.45;;
30533;SDS011;17318;52.390;9.754;2023-02-10T08:23:43;55.88;;;23.17;;
30533;SDS011;17318;52.390;9.754;2023-02-10T08:26:10;58.33;;;22.27;;
30533;SDS011;17318;52.390;9.754;2023-02-10T08:28:37;56.92;;;23.85;;
30533;SDS011;17318;52.390;9.754;2023-02-10T08:31:04;53.95;;;22.38;;
30533;SDS011;17318;52.390;9.754;2023-02-10T08:33:35;57.80;;;24.23;;
30533;SDS011;17318;52.390;9.754;2023-02-10T08:36:05;54.40;;;23.42;;
30533;SDS011;17318;52.390;9.754;2023-02-10T08:38:32;58.25;;;23.90;;
30533;SDS011;17318;52.390;9.754;2023-02-10T08:40:58;54.53;;;21.92;;
30533;SDS011;17318;52.390;9.754;2023-02-10T08:43:24;56.80;;;22.58;;
30533;SDS011;17318;52.390;9.754;2023-02-10T08:45:50;61.75;;;22.33;;
30533;SDS011;17318;52.390;9.754;2023-02-10T08:48:16;59.88;;;23.80;;
30533;SDS011;17318;52.390;9.754;2023-02-10T08:50:43;48.00;;;22.20;;
30533;SDS011;17318;52.390;9.754;2023-02-10T08:53:08;55.15;;;23.17;;
30533;SDS011;17318;52.390;9.754;2023-02-10T08:55:35;61.83;;;23.00;;
30533;SDS011;17318;52.390;9.754;2023-02-10T08:58:01;62.30;;;22.42;;
30533;SDS011;17318;52.390;9.754;2023-02-10T09:00:30;53.15;;;22.15;;
30533;SDS011;17318;52.390;9.754;2023-02-10T09:02:57;56.30;;;23.00;;
30533;SDS011;17318;52.390;9.754;2023-02-10T09:05:22;52.90;;;22.33;;
30533;SDS011;17318;52.390;9.754;2023-02-10T09:07:48;45.58;;;21.48;;
30533;SDS011;17318;52.390;9.754;2023-02-10T09:10:14;53.00;;;22.40;;
30533;SDS011;17318;52.390;9.754;2023-02-10T09:12:40;49.38;;;20.58;;
30533;SDS011;17318;52.390;9.754;2023-02-10T09:15:07;54.20;;;22.38;;
30533;SDS011;17318;52.390;9.754;2023-02-10T09:17:34;47.17;;;20.70;;
30533;SDS011;17318;52.390;9.754;2023-02-10T09:19:59;47.17;;;20.67;;
30533;SDS011;17318;52.390;9.754;2023-02-10T09:22:25;47.03;;;19.80;;
30533;SDS011;17318;52.390;9.754;2023-02-10T09:24:51;55.42;;;19.50;;
30533;SDS011;17318;52.390;9.754;2023-02-10T09:27:17;49.88;;;18.58;;
30533;SDS011;17318;52.390;9.754;2023-02-10T09:29:43;47.28;;;20.85;;
30533;SDS011;17318;52.390;9.754;2023-02-10T09:32:09;51.72;;;21.25;;
30533;SDS011;17318;52.390;9.754;2023-02-10T09:34:35;47.67;;;20.88;;
30533;SDS011;17318;52.390;9.754;2023-02-10T09:37:00;53.13;;;21.80;;
30533;SDS011;17318;52.390;9.754;2023-02-10T09:39:30;49.17;;;20.25;;
30533;SDS011;17318;52.390;9.754;2023-02-10T09:42:09;47.42;;;21.73;;
30533;SDS011;17318;52.390;9.754;2023-02-10T09:44:43;51.88;;;21.42;;
30533;SDS011;17318;52.390;9.754;2023-02-10T09:47:35;52.45;;;21.35;;
30533;SDS011;17318;52.390;9.754;2023-02-10T09:55:36;45.22;;;20.70;;
30533;SDS011;17318;52.390;9.754;2023-02-10T10:00:45;51.70;;;22.20;;
30533;SDS011;17318;52.390;9.754;2023-02-10T10:03:23;61.13;;;22.02;;
30533;SDS011;17318;52.390;9.754;2023-02-10T10:06:14;63.67;;;27.75;;
30533;SDS011;17318;52.390;9.754;2023-02-10T10:11:55;52.95;;;23.00;;
30533;SDS011;17318;52.390;9.754;2023-02-10T10:14:24;61.85;;;24.42;;
30533;SDS011;17318;52.390;9.754;2023-02-10T10:30:53;49.50;;;20.85;;
30533;SDS011;17318;52.390;9.754;2023-02-10T10:36:31;51.63;;;20.42;;
30533;SDS011;17318;52.390;9.754;2023-02-10T10:39:01;47.35;;;21.33;;
30533;SDS011;17318;52.390;9.754;2023-02-10T10:41:44;51.97;;;21.73;;
30533;SDS011;17318;52.390;9.754;2023-02-10T10:44:11;44.25;;;19.55;;
30533;SDS011;17318;52.390;9.754;2023-02-10T10:46:55;51.83;;;21.08;;
30533;SDS011;17318;52.390;9.754;2023-02-10T10:49:33;47.17;;;20.83;;
30533;SDS011;17318;52.390;9.754;2023-02-10T10:52:04;49.63;;;20.77;;
30533;SDS011;17318;52.390;9.754;2023-02-10T10:54:54;48.03;;;20.45;;
30533;SDS011;17318;52.390;9.754;2023-02-10T10:57:21;55.33;;;23.67;;
30533;SDS011;17318;52.390;9.754;2023-02-10T11:02:18;58.42;;;25.38;;
30533;SDS011;17318;52.390;9.754;2023-02-10T11:04:58;55.22;;;22.00;;
30533;SDS011;17318;52.390;9.754;2023-02-10T11:07:31;53.55;;;22.20;;
30533;SDS011;17318;52.390;9.754;2023-02-10T11:09:57;48.83;;;21.67;;
30533;SDS011;17318;52.390;9.754;2023-02-10T11:12:27;50.22;;;20.67;;
30533;SDS011;17318;52.390;9.754;2023-02-10T11:17:56;49.92;;;21.17;;
30533;SDS011;17318;52.390;9.754;2023-02-10T11:20:26;53.80;;;21.23;;
30533;SDS011;17318;52.390;9.754;2023-02-10T11:23:30;50.65;;;20.65;;
30533;SDS011;17318;52.390;9.754;2023-02-10T11:25:56;51.63;;;19.27;;
30533;SDS011;17318;52.390;9.754;2023-02-10T11:28:31;50.92;;;20.95;;
30533;SDS011;17318;52.390;9.754;2023-02-10T11:31:03;52.65;;;20.58;;
30533;SDS011;17318;52.390;9.754;2023-02-10T11:33:32;52.38;;;20.80;;
30533;SDS011;17318;52.390;9.754;2023-02-10T11:38:30;50.63;;;21.27;;
30533;SDS011;17318;52.390;9.754;2023-02-10T11:40:58;52.92;;;21.75;;
30533;SDS011;17318;52.390;9.754;2023-02-10T11:43:36;52.70;;;22.88;;
30533;SDS011;17318;52.390;9.754;2023-02-10T11:46:06;52.83;;;22.88;;
30533;SDS011;17318;52.390;9.754;2023-02-10T11:48:51;56.10;;;23.38;;
30533;SDS011;17318;52.390;9.754;2023-02-10T11:51:19;57.92;;;23.00;;
30533;SDS011;17318;52.390;9.754;2023-02-10T11:53:44;57.83;;;23.83;;
30533;SDS011;17318;52.390;9.754;2023-02-10T11:56:23;56.85;;;22.98;;
30533;SDS011;17318;52.390;9.754;2023-02-10T11:59:27;69.32;;;23.55;;
30533;SDS011;17318;52.390;9.754;2023-02-10T12:04:41;60.08;;;23.85;;
30533;SDS011;17318;52.390;9.754;2023-02-10T12:29:21;55.65;;;22.90;;
30533;SDS011;17318;52.390;9.754;2023-02-10T12:34:46;57.92;;;22.52;;
30533;SDS011;17318;52.390;9.754;2023-02-10T12:40:23;53.60;;;22.77;;
30533;SDS011;17318;52.390;9.754;2023-02-10T12:45:51;56.40;;;23.65;;
30533;SDS011;17318;52.390;9.754;2023-02-10T12:48:31;55.75;;;22.75;;
30533;SDS011;17318;52.390;9.754;2023-02-10T12:54:16;60.10;;;28.08;;
30533;SDS011;17318;52.390;9.754;2023-02-10T12:56:51;57.47;;;25.58;;
30533;SDS011;17318;52.390;9.754;2023-02-10T12:59:23;53.70;;;22.20;;
30533;SDS011;17318;52.390;9.754;2023-02-10T13:02:00;48.22;;;22.08;;
30533;SDS011;17318;52.390;9.754;2023-02-10T13:04:31;54.38;;;21.02;;
30533;SDS011;17318;52.390;9.754;2023-02-10T13:07:02;50.38;;;22.50;;
30533;SDS011;17318;52.390;9.754;2023-02-10T13:10:08;45.40;;;20.42;;
30533;SDS011;17318;52.390;9.754;2023-02-10T13:12:44;54.03;;;21.65;;
30533;SDS011;17318;52.390;9.754;2023-02-10T13:15:14;54.72;;;20.73;;
30533;SDS011;17318;52.390;9.754;2023-02-10T13:17:59;52.35;;;20.60;;
30533;SDS011;17318;52.390;9.754;2023-02-10T13:20:28;44.92;;;20.58;;
30533;SDS011;17318;52.390;9.754;2023-02-10T13:23:02;53.88;;;20.75;;
30533;SDS011;17318;52.390;9.754;2023-02-10T13:36:54;45.42;;;20.50;;
30533;SDS011;17318;52.390;9.754;2023-02-10T13:39:24;48.63;;;22.10;;
30533;SDS011;17318;52.390;9.754;2023-02-10T13:42:04;45.60;;;19.48;;
30533;SDS011;17318;52.390;9.754;2023-02-10T13:44:33;47.92;;;20.35;;
30533;SDS011;17318;52.390;9.754;2023-02-10T13:49:34;55.17;;;19.67;;
30533;SDS011;17318;52.390;9.754;2023-02-10T13:52:19;51.33;;;21.60;;
30533;SDS011;17318;52.390;9.754;2023-02-10T13:55:36;47.72;;;20.20;;
30533;SDS011;17318;52.390;9.754;2023-02-10T13:57:52;48.63;;;19.73;;
30533;SDS011;17318;52.390;9.754;2023-02-10T14:00:29;49.50;;;18.75;;
30533;SDS011;17318;52.390;9.754;2023-02-10T14:05:37;53.22;;;20.88;;
30533;SDS011;17318;52.390;9.754;2023-02-10T14:08:25;43.78;;;19.50;;
30533;SDS011;17318;52.390;9.754;2023-02-10T14:11:05;46.95;;;20.10;;
30533;SDS011;17318;52.390;9.754;2023-02-10T14:14:01;47.42;;;20.70;;
30533;SDS011;17318;52.390;9.754;2023-02-10T14:16:48;50.05;;;20.73;;
30533;SDS011;17318;52.390;9.754;2023-02-10T14:19:23;45.58;;;18.90;;
30533;SDS011;17318;52.390;9.754;2023-02-10T14:22:00;43.22;;;18.40;;
30533;SDS011;17318;52.390;9.754;2023-02-10T14:24:31;45.10;;;19.38;;
30533;SDS011;17318;52.390;9.754;2023-02-10T14:27:03;44.28;;;18.80;;
30533;SDS011;17318;52.390;9.754;2023-02-10T14:29:32;48.88;;;19.35;;
30533;SDS011;17318;52.390;9.754;2023-02-10T14:34:32;48.40;;;18.67;;
30533;SDS011;17318;52.390;9.754;2023-02-10T14:37:00;41.15;;;17.73;;
30533;SDS011;17318;52.390;9.754;2023-02-10T14:39:29;48.92;;;20.27;;
30533;SDS011;17318;52.390;9.754;2023-02-10T14:41:58;44.38;;;18.00;;
30533;SDS011;17318;52.390;9.754;2023-02-10T14:44:31;42.50;;;17.85;;
30533;SDS011;17318;52.390;9.754;2023-02-10T14:47:02;41.88;;;16.50;;
30533;SDS011;17318;52.390;9.754;2023-02-10T14:49:28;42.80;;;19.02;;
30533;SDS011;17318;52.390;9.754;2023-02-10T14:52:00;47.10;;;16.67;;
30533;SDS011;17318;52.390;9.754;2023-02-10T14:54:26;42.63;;;15.98;;
30533;SDS011;17318;52.390;9.754;2023-02-10T14:56:56;42.15;;;16.05;;
30533;SDS011;17318;52.390;9.754;2023-02-10T14:59:24;39.35;;;16.90;;
30533;SDS011;17318;52.390;9.754;2023-02-10T15:01:52;38.63;;;15.50;;
30533;SDS011;17318;52.390;9.754;2023-02-10T15:04:19;35.75;;;16.48;;
30533;SDS011;17318;52.390;9.754;2023-02-10T15:06:50;39.67;;;18.17;;
30533;SDS011;17318;52.390;9.754;2023-02-10T15:09:20;34.60;;;16.10;;
30533;SDS011;17318;52.390;9.754;2023-02-10T15:11:52;38.63;;;15.55;;
30533;SDS011;17318;52.390;9.754;2023-02-10T15:14:43;35.80;;;15.32;;
30533;SDS011;17318;52.390;9.754;2023-02-10T15:17:16;35.78;;;14.40;;
30533;SDS011;17318;52.390;9.754;2023-02-10T15:22:30;37.00;;;14.38;;
30533;SDS011;17318;52.390;9.754;2023-02-10T15:25:23;29.95;;;13.85;;
30533;SDS011;17318;52.390;9.754;2023-02-10T15:27:53;27.45;;;12.13;;
30533;SDS011;17318;52.390;9.754;2023-02-10T15:30:23;29.80;;;13.20;;
30533;SDS011;17318;52.390;9.754;2023-02-10T15:32:51;36.42;;;12.63;;
30533;SDS011;17318;52.390;9.754;2023-02-10T15:35:20;30.88;;;12.60;;
30533;SDS011;17318;52.390;9.754;2023-02-10T15:37:49;33.50;;;12.07;;
30533;SDS011;17318;52.390;9.754;2023-02-10T15:40:25;30.00;;;12.25;;
30533;SDS011;17318;52.390;9.754;2023-02-10T15:43:06;31.02;;;12.55;;
30533;SDS011;17318;52.390;9.754;2023-02-10T15:48:52;33.88;;;14.18;;
30533;SDS011;17318;52.390;9.754;2023-02-10T15:51:30;35.47;;;14.70;;
30533;SDS011;17318;52.390;9.754;2023-02-10T15:53:57;32.78;;;15.00;;
30533;SDS011;17318;52.390;9.754;2023-02-10T15:56:24;33.87;;;14.07;;
30533;SDS011;17318;52.390;9.754;2023-02-10T15:58:51;26.00;;;12.38;;
30533;SDS011;17318;52.390;9.754;2023-02-10T16:01:17;30.80;;;12.75;;
30533;SDS011;17318;52.390;9.754;2023-02-10T16:03:43;25.25;;;12.75;;
30533;SDS011;17318;52.390;9.754;2023-02-10T16:06:13;31.85;;;13.00;;
30533;SDS011;17318;52.390;9.754;2023-02-10T16:08:40;29.15;;;13.00;;
30533;SDS011;17318;52.390;9.754;2023-02-10T16:11:09;43.63;;;12.57;;
30533;SDS011;17318;52.390;9.754;2023-02-10T16:13:35;33.10;;;13.75;;
30533;SDS011;17318;52.390;9.754;2023-02-10T16:16:01;40.55;;;13.93;;
30533;SDS011;17318;52.390;9.754;2023-02-10T16:18:27;31.08;;;13.60;;
30533;SDS011;17318;52.390;9.754;2023-02-10T16:20:55;30.08;;;13.00;;
30533;SDS011;17318;52.390;9.754;2023-02-10T16:23:20;35.88;;;13.73;;
30533;SDS011;17318;52.390;9.754;2023-02-10T16:25:47;39.72;;;13.88;;
30533;SDS011;17318;52.390;9.754;2023-02-10T16:28:14;31.50;;;13.95;;
30533;SDS011;17318;52.390;9.754;2023-02-10T16:30:42;38.33;;;15.02;;
30533;SDS011;17318;52.390;9.754;2023-02-10T16:33:08;34.15;;;12.90;;
30533;SDS011;17318;52.390;9.754;2023-02-10T16:35:34;37.05;;;14.10;;
30533;SDS011;17318;52.390;9.754;2023-02-10T16:38:00;46.30;;;13.98;;